createdAt,value
2019-03-10T00:02:16.249Z,5.30
2019-03-10T00:04:48.953Z,5.30
2019-03-10T00:07:21.325Z,5.30
2019-03-10T00:09:53.527Z,5.30
2019-03-10T00:12:27.043Z,5.30
2019-03-10T00:14:59.388Z,5.40
2019-03-10T00:17:31.676Z,5.30
2019-03-10T00:20:04.480Z,5.30
2019-03-10T00:22:36.772Z,5.20
2019-03-10T00:25:09.084Z,5.20
2019-03-10T00:27:41.268Z,5.20
2019-03-10T00:30:13.714Z,5.20
2019-03-10T00:32:46.010Z,5.20
2019-03-10T00:35:18.248Z,5.20
2019-03-10T00:37:50.519Z,5.20
2019-03-10T00:41:00.069Z,5.20
2019-03-10T00:43:58.597Z,5.20
2019-03-10T00:46:50.925Z,5.30
2019-03-10T00:50:13.039Z,5.30
2019-03-10T00:52:58.695Z,5.20
2019-03-10T00:55:30.973Z,5.20
2019-03-10T00:58:03.536Z,5.20
2019-03-10T01:00:36.073Z,5.20
2019-03-10T01:03:08.651Z,5.20
2019-03-10T01:05:41.260Z,5.20
2019-03-10T01:08:13.723Z,5.20
2019-03-10T01:10:46.068Z,5.10
2019-03-10T01:13:18.337Z,5.20
2019-03-10T01:15:50.792Z,5.10
2019-03-10T01:18:23.342Z,5.10
2019-03-10T01:20:56.911Z,5.10
2019-03-10T01:23:29.506Z,5.20
2019-03-10T01:26:01.735Z,5.10
2019-03-10T01:28:33.964Z,5.10
2019-03-10T01:31:39.339Z,5.10
2019-03-10T01:34:31.240Z,5.10
2019-03-10T01:37:03.589Z,5.10
2019-03-10T01:39:35.833Z,5.10
2019-03-10T01:42:08.139Z,5.10
2019-03-10T01:44:40.400Z,5.10
2019-03-10T01:47:12.665Z,5.10
2019-03-10T01:49:45.086Z,5.10
2019-03-10T01:52:17.435Z,5.10
2019-03-10T01:54:49.717Z,5.10
2019-03-10T01:57:21.979Z,5.10
2019-03-10T01:59:54.116Z,5.20
2019-03-10T02:02:26.271Z,5.20
2019-03-10T02:04:58.716Z,5.10
2019-03-10T02:07:30.989Z,5.10
2019-03-10T02:10:04.296Z,5.10
2019-03-10T02:12:36.613Z,5.10
2019-03-10T02:15:11.316Z,5.10
2019-03-10T02:17:43.678Z,5.10
2019-03-10T02:20:16.758Z,5.00
2019-03-10T02:22:48.964Z,5.10
2019-03-10T02:25:21.320Z,5.10
2019-03-10T02:27:53.701Z,5.10
2019-03-10T02:30:26.159Z,5.10
2019-03-10T02:32:58.419Z,5.10
2019-03-10T02:35:30.958Z,5.10
2019-03-10T02:38:03.471Z,5.10
2019-03-10T02:40:35.558Z,5.10
2019-03-10T02:43:07.814Z,5.20
2019-03-10T02:45:40.171Z,5.10
2019-03-10T02:48:12.453Z,5.00
2019-03-10T02:50:44.841Z,5.00
2019-03-10T02:53:17.292Z,5.00
2019-03-10T02:55:49.408Z,5.00
2019-03-10T02:58:21.726Z,5.00
2019-03-10T03:00:54.404Z,4.90
2019-03-10T03:03:26.597Z,5.00
2019-03-10T03:05:58.957Z,5.00
2019-03-10T03:08:31.042Z,5.00
2019-03-10T03:11:03.395Z,5.00
2019-03-10T03:13:35.694Z,5.00
2019-03-10T03:16:07.961Z,5.00
2019-03-10T03:18:40.184Z,5.00
2019-03-10T03:21:12.380Z,4.90
2019-03-10T03:23:44.579Z,5.00
2019-03-10T03:26:16.902Z,5.00
2019-03-10T03:28:49.070Z,5.00
2019-03-10T03:31:21.682Z,5.00
2019-03-10T03:33:54.087Z,4.90
2019-03-10T03:36:28.731Z,5.00
2019-03-10T03:39:13.125Z,5.00
2019-03-10T03:41:45.533Z,5.00
2019-03-10T03:44:17.980Z,5.10
2019-03-10T03:46:50.181Z,5.10
2019-03-10T03:49:22.391Z,5.10
2019-03-10T03:51:54.720Z,5.00
2019-03-10T03:54:26.928Z,5.10
2019-03-10T03:56:59.480Z,5.00
2019-03-10T03:59:31.716Z,5.00
2019-03-10T04:02:09.800Z,5.00
2019-03-10T04:04:42.016Z,5.00
2019-03-10T04:07:14.141Z,5.00
2019-03-10T04:09:46.237Z,5.00
2019-03-10T04:12:18.416Z,5.00
2019-03-10T04:14:57.737Z,5.00
2019-03-10T04:17:30.077Z,5.00
2019-03-10T04:20:02.456Z,5.00
2019-03-10T04:22:34.598Z,5.10
2019-03-10T04:25:06.954Z,5.00
2019-03-10T04:27:39.391Z,5.00
2019-03-10T04:30:12.036Z,5.10
2019-03-10T04:32:44.292Z,5.10
2019-03-10T04:35:16.502Z,5.10
2019-03-10T04:37:48.809Z,5.20
2019-03-10T04:40:20.954Z,5.20
2019-03-10T04:42:53.181Z,5.20
2019-03-10T04:45:25.380Z,5.30
2019-03-10T04:47:57.510Z,5.30
2019-03-10T04:50:29.897Z,5.30
2019-03-10T04:53:02.403Z,5.30
2019-03-10T04:55:46.166Z,5.30
2019-03-10T04:58:18.979Z,5.40
2019-03-10T05:00:53.239Z,5.40
2019-03-10T05:03:25.803Z,5.50
2019-03-10T05:05:58.018Z,5.50
2019-03-10T05:08:30.183Z,5.60
2019-03-10T05:11:02.418Z,5.60
2019-03-10T05:13:34.619Z,5.50
2019-03-10T05:16:06.941Z,5.50
2019-03-10T05:18:39.387Z,5.50
2019-03-10T05:21:11.789Z,5.60
2019-03-10T05:23:44.661Z,5.60
2019-03-10T05:26:16.771Z,5.60
2019-03-10T05:28:49.110Z,5.50
2019-03-10T05:31:21.327Z,5.50
2019-03-10T05:33:53.443Z,5.50
2019-03-10T05:36:25.654Z,5.50
2019-03-10T05:38:57.776Z,5.50
2019-03-10T05:41:30.009Z,5.50
2019-03-10T05:44:02.678Z,5.50
2019-03-10T05:46:34.857Z,5.50
2019-03-10T05:49:07.014Z,5.50
2019-03-10T05:51:39.141Z,5.50
2019-03-10T05:54:12.080Z,5.50
2019-03-10T05:56:44.293Z,5.60
2019-03-10T05:59:16.520Z,5.50
2019-03-10T06:01:48.855Z,5.50
2019-03-10T06:04:21.252Z,5.50
2019-03-10T06:06:53.575Z,5.60
2019-03-10T06:09:25.818Z,5.50
2019-03-10T06:11:58.120Z,5.60
2019-03-10T06:14:30.358Z,5.60
2019-03-10T06:17:02.674Z,5.50
2019-03-10T06:19:34.911Z,5.60
2019-03-10T06:22:07.112Z,5.50
2019-03-10T06:24:39.501Z,5.50
2019-03-10T06:27:12.116Z,5.60
2019-03-10T06:29:44.344Z,5.60
2019-03-10T06:32:16.582Z,5.60
2019-03-10T06:34:48.822Z,5.60
2019-03-10T06:37:21.051Z,5.60
2019-03-10T06:39:53.159Z,5.60
2019-03-10T06:42:25.435Z,5.70
2019-03-10T06:44:57.548Z,5.80
2019-03-10T06:47:30.354Z,5.70
2019-03-10T06:50:03.085Z,5.80
2019-03-10T06:52:35.212Z,5.90
2019-03-10T06:55:07.515Z,6.00
2019-03-10T06:57:39.744Z,6.10
2019-03-10T07:00:14.738Z,6.20
2019-03-10T07:02:47.391Z,6.20
2019-03-10T07:05:19.582Z,6.30
2019-03-10T07:07:51.981Z,6.40
2019-03-10T07:10:24.343Z,6.40
2019-03-10T07:12:56.596Z,6.40
2019-03-10T07:15:29.024Z,6.50
2019-03-10T07:18:01.554Z,6.50
2019-03-10T07:20:34.130Z,6.60
2019-03-10T07:23:09.644Z,6.50
2019-03-10T07:25:42.250Z,6.60
2019-03-10T07:28:30.419Z,6.70
2019-03-10T07:31:27.616Z,6.70
2019-03-10T07:34:20.419Z,6.70
2019-03-10T07:37:10.536Z,6.70
2019-03-10T07:40:00.437Z,6.60
2019-03-10T07:42:51.055Z,6.70
2019-03-10T07:45:29.748Z,6.70
2019-03-10T07:48:20.003Z,6.70
2019-03-10T07:51:20.308Z,6.90
2019-03-10T07:54:02.501Z,6.90
2019-03-10T07:56:45.470Z,6.80
2019-03-10T07:59:33.317Z,6.90
2019-03-10T08:02:28.545Z,6.70
2019-03-10T08:05:21.678Z,6.70
2019-03-10T08:08:03.842Z,6.90
2019-03-10T08:10:51.308Z,6.90
2019-03-10T08:13:43.225Z,7.00
2019-03-10T08:16:35.229Z,7.20
2019-03-10T08:22:35.840Z,7.10
2019-03-10T08:25:36.984Z,7.10
2019-03-10T08:28:32.295Z,7.10
2019-03-10T08:31:39.208Z,7.30
2019-03-10T08:34:39.930Z,7.50
2019-03-10T08:37:34.912Z,7.50
2019-03-10T08:40:26.079Z,7.80
2019-03-10T08:43:17.976Z,7.70
2019-03-10T08:46:08.213Z,7.50
2019-03-10T08:48:58.617Z,7.40
2019-03-10T08:51:36.669Z,7.40
2019-03-10T08:54:34.060Z,7.40
2019-03-10T08:57:12.656Z,7.60
2019-03-10T09:00:13.364Z,7.50
2019-03-10T09:02:50.704Z,7.80
2019-03-10T09:05:42.598Z,7.80
2019-03-10T09:08:46.634Z,7.60
2019-03-10T09:11:38.416Z,7.70
2019-03-10T09:14:36.238Z,7.80
2019-03-10T09:17:28.234Z,7.90
2019-03-10T09:20:05.613Z,7.80
2019-03-10T09:22:47.810Z,7.90
2019-03-10T09:25:42.813Z,8.10
2019-03-10T09:28:31.419Z,8.20
2019-03-10T09:31:14.701Z,8.00
2019-03-10T09:34:03.019Z,8.00
2019-03-10T09:36:53.666Z,8.20
2019-03-10T09:39:36.334Z,8.20
2019-03-10T09:42:30.919Z,8.30
2019-03-10T09:45:16.065Z,8.40
2019-03-10T09:48:16.666Z,8.40
2019-03-10T09:51:07.571Z,8.30
2019-03-10T09:54:02.229Z,8.20
2019-03-10T09:56:51.499Z,8.30
2019-03-10T09:59:47.230Z,8.30
2019-03-10T10:02:26.225Z,8.40
2019-03-10T10:05:36.387Z,8.30
2019-03-10T10:08:20.380Z,8.40
2019-03-10T10:11:12.374Z,8.50
2019-03-10T10:14:04.564Z,8.50
2019-03-10T10:16:55.509Z,8.40
2019-03-10T10:19:47.302Z,8.20
2019-03-10T10:22:27.321Z,8.30
2019-03-10T10:25:07.947Z,8.30
2019-03-10T10:28:04.471Z,8.20
2019-03-10T10:30:59.344Z,8.20
2019-03-10T10:33:49.535Z,8.10
2019-03-10T10:36:44.585Z,8.20
2019-03-10T10:39:38.830Z,8.30
2019-03-10T10:42:29.440Z,8.30
2019-03-10T10:45:09.048Z,8.20
2019-03-10T10:47:58.092Z,8.30
2019-03-10T10:50:50.688Z,8.40
2019-03-10T10:53:45.245Z,8.40
2019-03-10T10:56:25.273Z,8.40
2019-03-10T10:59:15.800Z,8.60
2019-03-10T11:02:13.366Z,8.70
2019-03-10T11:04:59.548Z,8.80
2019-03-10T11:10:37.894Z,8.60
2019-03-10T11:13:25.878Z,8.80
2019-03-10T11:16:17.841Z,8.80
2019-03-10T11:19:09.737Z,8.90
2019-03-10T11:22:16.649Z,8.80
2019-03-10T11:24:57.495Z,8.70
2019-03-10T11:27:52.334Z,8.60
2019-03-10T11:30:47.890Z,8.40
2019-03-10T11:33:42.280Z,8.50
2019-03-10T11:36:39.906Z,8.40
2019-03-10T11:39:31.916Z,8.30
2019-03-10T11:42:10.982Z,8.30
2019-03-10T11:44:53.206Z,8.10
2019-03-10T11:47:58.535Z,8.10
2019-03-10T11:50:59.049Z,8.10
2019-03-10T11:53:39.007Z,8.10
2019-03-10T11:56:43.008Z,7.90
2019-03-10T11:59:19.592Z,8.00
2019-03-10T12:02:01.363Z,8.00
2019-03-10T12:04:47.185Z,8.10
2019-03-10T12:07:42.084Z,8.00
2019-03-10T12:10:14.348Z,7.90
2019-03-10T12:12:46.903Z,7.80
2019-03-10T12:15:19.397Z,7.70
2019-03-10T12:17:51.833Z,7.60
2019-03-10T12:20:24.177Z,7.50
2019-03-10T12:22:56.488Z,7.70
2019-03-10T12:25:28.948Z,7.80
2019-03-10T12:28:01.457Z,7.90
2019-03-10T12:30:33.766Z,7.90
2019-03-10T12:33:05.978Z,7.80
2019-03-10T12:35:38.377Z,7.80
2019-03-10T12:38:10.557Z,7.80
2019-03-10T12:40:42.778Z,7.70
2019-03-10T12:43:14.963Z,7.60
2019-03-10T12:45:47.217Z,7.50
2019-03-10T12:48:19.528Z,7.50
2019-03-10T12:50:51.972Z,7.80
2019-03-10T12:53:24.201Z,7.80
2019-03-10T12:55:56.517Z,7.90
2019-03-10T12:58:28.755Z,8.00
2019-03-10T13:01:06.191Z,8.00
2019-03-10T13:03:35.005Z,8.10
2019-03-10T13:06:07.226Z,8.20
2019-03-10T13:08:39.493Z,8.30
2019-03-10T13:11:11.705Z,8.20
2019-03-10T13:13:43.946Z,7.80
2019-03-10T13:16:16.062Z,7.70
2019-03-10T13:18:48.278Z,7.50
2019-03-10T13:21:20.537Z,7.60
2019-03-10T13:28:57.574Z,7.30
2019-03-10T13:31:30.297Z,7.50
2019-03-10T13:34:02.635Z,7.60
2019-03-10T13:36:35.104Z,7.60
2019-03-10T13:39:07.470Z,7.70
2019-03-10T13:41:40.056Z,7.50
2019-03-10T13:44:12.266Z,7.50
2019-03-10T13:46:44.573Z,7.30
2019-03-10T13:49:16.708Z,7.30
2019-03-10T13:51:49.024Z,7.20
2019-03-10T13:54:21.342Z,7.00
2019-03-10T13:56:53.534Z,7.00
2019-03-10T13:59:25.854Z,7.10
2019-03-10T14:01:58.174Z,7.30
2019-03-10T14:04:30.545Z,7.30
2019-03-10T14:07:02.828Z,7.20
2019-03-10T14:09:35.365Z,7.20
2019-03-10T14:12:07.713Z,7.40
2019-03-10T14:14:39.950Z,7.40
2019-03-10T14:17:12.179Z,7.20
2019-03-10T14:19:44.303Z,7.50
2019-03-10T14:22:16.536Z,7.20
2019-03-10T14:24:48.839Z,7.00
2019-03-10T14:27:21.563Z,6.80
2019-03-10T14:29:53.931Z,7.00
2019-03-10T14:32:26.337Z,6.90
2019-03-10T14:34:58.573Z,7.00
2019-03-10T14:37:31.119Z,7.10
2019-03-10T14:40:04.434Z,6.90
2019-03-10T14:42:36.660Z,6.70
2019-03-10T14:45:10.126Z,6.80
2019-03-10T14:47:42.746Z,7.00
2019-03-10T14:50:15.836Z,6.90
2019-03-10T14:52:48.247Z,6.90
2019-03-10T14:55:21.929Z,6.80
2019-03-10T14:57:54.344Z,6.90
2019-03-10T15:00:27.005Z,6.80
2019-03-10T15:02:59.158Z,7.00
2019-03-10T15:05:31.284Z,7.00
2019-03-10T15:08:03.623Z,6.80
2019-03-10T15:10:35.947Z,6.80
2019-03-10T15:13:08.074Z,6.80
2019-03-10T15:15:40.800Z,6.70
2019-03-10T15:18:13.576Z,6.80
2019-03-10T15:20:46.010Z,6.90
2019-03-10T15:23:18.399Z,6.80
2019-03-10T15:25:50.897Z,6.90
2019-03-10T15:28:22.988Z,7.00
2019-03-10T15:30:55.555Z,7.10
2019-03-10T15:33:27.752Z,7.20
2019-03-10T15:35:59.843Z,7.20
2019-03-10T15:38:32.504Z,7.10
2019-03-10T15:41:04.902Z,7.10
2019-03-10T15:43:37.093Z,7.20
2019-03-10T15:46:09.457Z,7.40
2019-03-10T15:48:41.965Z,7.30
2019-03-10T15:51:14.267Z,7.20
2019-03-10T15:53:46.770Z,7.10
2019-03-10T15:56:19.077Z,7.10
2019-03-10T15:58:51.333Z,7.30
2019-03-10T16:01:23.517Z,7.30
2019-03-10T16:03:57.661Z,7.10
2019-03-10T16:06:29.805Z,7.10
2019-03-10T16:09:02.064Z,7.10
2019-03-10T16:11:34.784Z,7.10
2019-03-10T16:14:07.596Z,7.00
2019-03-10T16:16:39.970Z,7.00
2019-03-10T16:19:12.289Z,7.10
2019-03-10T16:21:44.703Z,7.00
2019-03-10T16:24:17.022Z,6.80
2019-03-10T16:26:49.217Z,6.90
2019-03-10T16:29:21.573Z,6.90
2019-03-10T16:31:53.845Z,6.80
2019-03-10T16:34:26.503Z,6.90
2019-03-10T16:36:58.800Z,6.80
2019-03-10T16:39:31.073Z,6.90
2019-03-10T16:42:03.368Z,6.80
2019-03-10T16:44:35.876Z,6.60
2019-03-10T16:47:07.973Z,6.60
2019-03-10T16:49:40.551Z,6.70
2019-03-10T16:52:12.742Z,6.60
2019-03-10T16:54:44.990Z,6.50
2019-03-10T16:57:17.100Z,6.50
2019-03-10T16:59:49.694Z,6.30
2019-03-10T17:02:21.919Z,6.30
2019-03-10T17:04:54.472Z,6.30
2019-03-10T17:07:26.650Z,6.40
2019-03-10T17:09:59.448Z,6.40
2019-03-10T17:12:31.756Z,6.60
2019-03-10T17:15:04.782Z,6.60
2019-03-10T17:17:37.367Z,6.40
2019-03-10T17:20:11.035Z,6.30
2019-03-10T17:22:43.665Z,6.40
2019-03-10T17:25:16.086Z,6.40
2019-03-10T17:27:48.708Z,6.20
2019-03-10T17:30:21.172Z,6.30
2019-03-10T17:32:53.533Z,6.20
2019-03-10T17:35:26.040Z,6.00
2019-03-10T17:37:58.632Z,6.00
2019-03-10T17:40:30.867Z,6.00
2019-03-10T17:43:03.204Z,6.10
2019-03-10T17:45:35.633Z,6.00
2019-03-10T17:48:07.872Z,6.00
2019-03-10T17:50:40.629Z,6.00
2019-03-10T17:53:13.230Z,6.00
2019-03-10T17:55:45.500Z,6.00
2019-03-10T17:58:17.825Z,5.80
2019-03-10T18:00:50.136Z,5.90
2019-03-10T18:03:22.771Z,5.90
2019-03-10T18:05:55.082Z,5.80
2019-03-10T18:08:27.334Z,5.70
2019-03-10T18:11:00.281Z,5.70
2019-03-10T18:13:32.684Z,5.60
2019-03-10T18:16:05.077Z,5.50
2019-03-10T18:18:37.648Z,5.40
2019-03-10T18:21:10.037Z,5.50
2019-03-10T18:23:42.526Z,5.10
2019-03-10T18:26:14.664Z,5.10
2019-03-10T18:28:47.297Z,5.00
2019-03-10T18:31:19.744Z,4.90
2019-03-10T18:33:52.601Z,4.90
2019-03-10T18:36:25.104Z,4.70
2019-03-10T18:38:57.511Z,4.60
2019-03-10T18:41:29.930Z,4.40
2019-03-10T18:44:02.155Z,4.30
2019-03-10T18:46:35.036Z,4.10
2019-03-10T18:49:07.415Z,4.00
2019-03-10T18:51:39.669Z,3.70
2019-03-10T18:54:11.870Z,3.90
2019-03-10T18:56:44.305Z,3.80
2019-03-10T18:59:20.521Z,3.70
2019-03-10T19:01:52.737Z,3.80
2019-03-10T19:04:25.397Z,3.70
2019-03-10T19:06:57.944Z,3.60
2019-03-10T19:09:30.339Z,3.20
2019-03-10T19:12:02.703Z,3.40
2019-03-10T19:14:35.266Z,3.30
2019-03-10T19:17:07.770Z,3.40
2019-03-10T19:19:40.921Z,3.10
2019-03-10T19:22:13.206Z,3.00
2019-03-10T19:24:45.443Z,3.00
2019-03-10T19:27:17.940Z,2.70
2019-03-10T19:29:50.217Z,2.70
2019-03-10T19:32:22.388Z,2.60
2019-03-10T19:34:55.092Z,2.70
2019-03-10T19:37:27.333Z,2.80
2019-03-10T19:39:59.597Z,2.90
2019-03-10T19:42:32.168Z,2.90
2019-03-10T19:45:04.797Z,2.90
2019-03-10T19:47:36.965Z,2.90
2019-03-10T19:50:10.529Z,2.80
2019-03-10T19:52:42.722Z,2.70
2019-03-10T19:55:15.090Z,2.70
2019-03-10T19:57:47.565Z,2.60
2019-03-10T20:00:19.989Z,2.70
2019-03-10T20:02:52.289Z,2.70
2019-03-10T20:05:24.659Z,2.60
2019-03-10T20:07:56.981Z,2.60
2019-03-10T20:10:29.557Z,2.60
2019-03-10T20:13:01.691Z,2.60
2019-03-10T20:15:34.040Z,2.60
2019-03-10T20:18:06.278Z,2.30
2019-03-10T20:20:38.565Z,2.20
2019-03-10T20:23:10.769Z,2.40
2019-03-10T20:25:43.073Z,2.40
2019-03-10T20:28:15.299Z,2.20
2019-03-10T20:30:47.505Z,2.20
2019-03-10T20:33:20.061Z,2.10
2019-03-10T20:35:52.531Z,2.10
2019-03-10T20:38:24.621Z,2.10
2019-03-10T20:40:56.772Z,2.20
2019-03-10T20:43:29.227Z,2.20
2019-03-10T20:46:01.494Z,2.10
2019-03-10T20:48:33.697Z,2.10
2019-03-10T20:51:05.904Z,2.20
2019-03-10T20:53:38.002Z,2.10
2019-03-10T20:56:10.146Z,2.10
2019-03-10T20:58:42.356Z,2.20
2019-03-10T21:01:14.617Z,2.20
2019-03-10T21:03:46.721Z,2.30
2019-03-10T21:06:19.254Z,2.30
2019-03-10T21:08:51.520Z,2.40
2019-03-10T21:11:24.140Z,2.40
2019-03-10T21:13:56.484Z,2.40
2019-03-10T21:16:28.731Z,2.40
2019-03-10T21:19:00.830Z,2.50
2019-03-10T21:21:33.061Z,2.40
2019-03-10T21:24:05.230Z,2.40
2019-03-10T21:26:37.470Z,2.30
2019-03-10T21:29:09.646Z,2.30
2019-03-10T21:31:42.207Z,2.40
2019-03-10T21:34:14.522Z,2.40
2019-03-10T21:36:46.744Z,2.30
2019-03-10T21:39:19.069Z,2.20
2019-03-10T21:41:51.401Z,2.40
2019-03-10T21:44:26.919Z,2.40
2019-03-10T21:46:58.221Z,2.30
2019-03-10T21:49:30.572Z,2.40
2019-03-10T21:52:02.916Z,2.40
2019-03-10T21:54:35.018Z,2.50
2019-03-10T21:57:07.293Z,2.50
2019-03-10T21:59:39.511Z,2.50
2019-03-10T22:02:11.766Z,2.60
2019-03-10T22:04:44.025Z,2.70
2019-03-10T22:07:16.273Z,2.70
2019-03-10T22:09:48.413Z,2.80
2019-03-10T22:12:20.756Z,2.80
2019-03-10T22:14:52.838Z,2.80
2019-03-10T22:17:24.981Z,2.80
2019-03-10T22:19:57.274Z,2.80
2019-03-10T22:22:29.521Z,2.80
2019-03-10T22:25:12.251Z,2.90
2019-03-10T22:27:35.724Z,2.90
2019-03-10T22:30:09.746Z,2.90
2019-03-10T22:32:42.034Z,2.90
2019-03-10T22:35:14.433Z,3.00
2019-03-10T22:37:46.646Z,2.90
2019-03-10T22:40:19.120Z,3.00
2019-03-10T22:42:51.386Z,3.00
2019-03-10T22:45:23.655Z,3.00
2019-03-10T22:47:55.958Z,3.00
2019-03-10T22:50:28.175Z,3.10
2019-03-10T22:53:00.273Z,3.10
2019-03-10T22:55:32.580Z,3.10
2019-03-10T22:58:04.884Z,3.10
2019-03-10T23:00:43.834Z,3.20
2019-03-10T23:03:16.026Z,3.20
2019-03-10T23:05:48.238Z,3.20
2019-03-10T23:08:20.629Z,3.20
2019-03-10T23:10:52.915Z,3.20
2019-03-10T23:13:25.162Z,3.20
2019-03-10T23:15:57.340Z,3.20
2019-03-10T23:18:29.586Z,3.20
2019-03-10T23:21:01.815Z,3.20
2019-03-10T23:23:34.287Z,3.20
2019-03-10T23:26:06.531Z,3.20
2019-03-10T23:28:38.843Z,3.20
2019-03-10T23:31:11.093Z,3.20
2019-03-10T23:33:43.510Z,3.20
2019-03-10T23:36:15.542Z,3.30
2019-03-10T23:38:47.664Z,3.30
2019-03-10T23:41:19.975Z,3.30
2019-03-10T23:43:52.200Z,3.30
2019-03-10T23:46:24.475Z,3.30
2019-03-10T23:48:56.951Z,3.30
2019-03-10T23:51:29.136Z,3.30
2019-03-10T23:54:01.422Z,3.40
2019-03-10T23:56:33.789Z,3.40
2019-03-10T23:59:06.055Z,3.40
